Time;durP1;ratioP1;P1;durP2;ratioP2;P2;SDS_P1;SDS_P2;PMS_P1;PMS_P2;Temp;Humidity;BMP_temperature;BMP_pressure;BME280_temperature;BME280_humidity;BME280_pressure;Samples;Min_cycle;Max_cycle;Signal;HPM_P1;HPM_P2
2023/08/09 00:01:37;202810.00;0.68;350.76;0.00;0.00;0.62;;;;;20.00;1.00;;;;;;2275725;60;1755;-89
2023/08/09 00:06:31;709908.00;2.37;1224.42;0.00;0.00;0.62;;;;;19.90;1.00;;;;;;2277324;60;1383;-87
2023/08/09 00:09:02;400799.00;1.34;691.18;73842.00;0.25;128.40;;;;;19.90;1.00;;;;;;2286985;39;3643;-86
2023/08/09 00:11:30;1063747.00;3.55;1845.71;0.00;0.00;0.62;;;;;20.10;1.00;;;;;;2283542;39;3618;-87
2023/08/09 00:13:58;228252.00;0.76;394.54;0.00;0.00;0.62;;;;;20.30;1.00;;;;;;2271678;61;1839;-86
2023/08/09 00:16:26;129411.00;0.43;224.31;0.00;0.00;0.62;;;;;20.30;1.00;;;;;;2271724;61;1735;-88
2023/08/09 00:18:53;189882.00;0.63;328.51;0.00;0.00;0.62;;;;;20.40;1.00;;;;;;2307982;55;3801;-86
2023/08/09 00:21:21;147986.00;0.49;256.34;0.00;0.00;0.62;;;;;20.40;1.00;;;;;;2275534;61;1579;-88
2023/08/09 00:23:48;180707.00;0.60;312.71;0.00;0.00;0.62;;;;;20.60;1.00;;;;;;2275645;61;1525;-88
2023/08/09 00:26:15;190257.00;0.63;329.15;0.00;0.00;0.62;;;;;20.70;1.00;;;;;;2275723;61;1691;-87
2023/08/09 00:28:44;216551.00;0.72;374.41;0.00;0.00;0.62;;;;;20.70;1.00;;;;;;2275693;61;1192;-87
2023/08/09 00:31:14;220110.00;0.73;380.53;33770.00;0.11;59.11;;;;;20.70;1.00;;;;;;2275744;61;1429;-86
2023/08/09 00:33:41;191312.00;0.64;330.97;0.00;0.00;0.62;;;;;20.90;1.00;;;;;;2279211;55;3738;-88
2023/08/09 00:36:09;184458.00;0.61;319.17;0.00;0.00;0.62;;;;;20.80;1.00;;;;;;2275614;61;1606;-87
2023/08/09 00:38:37;84168.00;0.28;146.24;0.00;0.00;0.62;;;;;20.60;1.00;;;;;;2275679;61;2005;-88
2023/08/09 00:41:04;178513.00;0.60;308.93;1623.00;0.01;3.43;;;;;20.60;1.00;;;;;;2275600;61;1322;-88
2023/08/09 00:43:31;181447.00;0.60;313.98;0.00;0.00;0.62;;;;;20.80;1.00;;;;;;2275463;61;1490;-85
2023/08/09 00:45:59;221069.00;0.74;382.18;0.00;0.00;0.62;;;;;20.50;1.00;;;;;;2276150;61;1589;-86
2023/08/09 00:50:57;501776.00;1.67;864.88;0.00;0.00;0.62;;;;;20.60;1.00;;;;;;2278076;60;1340;-88
2023/08/09 00:53:24;178027.00;0.59;308.09;18646.00;0.06;32.93;;;;;20.70;1.00;;;;;;2274826;60;1377;-88
2023/08/09 00:55:51;529977.00;1.77;913.45;9514.00;0.03;17.11;;;;;20.70;1.00;;;;;;2322764;40;3728;-88
2023/08/09 00:58:18;190560.00;0.64;329.67;0.00;0.00;0.62;;;;;20.80;1.00;;;;;;2276382;61;1619;-87
2023/08/09 01:00:46;227952.00;0.76;394.03;0.00;0.00;0.62;;;;;20.80;1.00;;;;;;2276323;61;1922;-89
2023/08/09 01:03:14;166043.00;0.55;287.45;0.00;0.00;0.62;;;;;20.90;1.00;;;;;;2276163;61;1423;-89
2023/08/09 01:05:51;91392.00;0.30;158.71;0.00;0.00;0.62;;;;;21.00;1.00;;;;;;2276334;61;1584;-87
2023/08/09 01:08:27;261113.00;0.87;451.06;0.00;0.00;0.62;;;;;20.70;1.00;;;;;;2276324;61;1605;-85
2023/08/09 01:13:28;1200972.00;4.00;2091.98;0.00;0.00;0.62;;;;;20.60;1.00;;;;;;2275826;60;1305;-87
2023/08/09 01:15:56;263794.00;0.88;455.67;26066.00;0.09;45.77;;;;;20.60;1.00;;;;;;2272031;61;1666;-88
2023/08/09 01:20:53;1113315.00;3.71;1934.25;138107.00;0.46;239.31;;;;;20.60;1.00;;;;;;2273743;61;2013;-88
2023/08/09 01:23:22;220039.00;0.73;380.41;771.00;0.00;1.96;;;;;20.60;1.00;;;;;;2270397;61;1272;-86
2023/08/09 01:25:51;173083.00;0.58;299.58;0.00;0.00;0.62;;;;;20.50;1.00;;;;;;2268011;61;2190;-87
2023/08/09 01:28:18;191423.00;0.64;331.16;0.00;0.00;0.62;;;;;20.60;1.00;;;;;;2295291;55;3844;-90
2023/08/09 01:30:46;927223.00;3.09;1603.98;0.00;0.00;0.62;;;;;20.70;1.00;;;;;;2275591;61;1795;-89
2023/08/09 01:33:14;198127.00;0.66;342.70;0.00;0.00;0.62;;;;;20.70;1.00;;;;;;2275968;61;1429;-87
2023/08/09 01:35:52;169547.00;0.57;293.49;0.00;0.00;0.62;;;;;20.90;1.00;;;;;;2275921;61;1556;-88
2023/08/09 01:38:26;141155.00;0.47;244.56;0.00;0.00;0.62;;;;;20.70;1.00;;;;;;2276124;61;2264;-88
2023/08/09 01:40:55;116081.00;0.39;201.32;0.00;0.00;0.62;;;;;20.90;1.00;;;;;;2276075;61;2017;-88
2023/08/09 01:43:23;523885.00;1.75;902.96;178637.00;0.60;309.14;;;;;20.90;1.00;;;;;;2321752;40;3582;-90
2023/08/09 01:45:51;161180.00;0.54;279.07;0.00;0.00;0.62;;;;;20.90;1.00;;;;;;2276101;61;1596;-88
2023/08/09 01:48:18;293046.00;0.98;505.97;0.00;0.00;0.62;;;;;20.80;1.00;;;;;;2276056;61;1757;-90
2023/08/09 01:50:45;131932.00;0.44;228.66;0.00;0.00;0.62;;;;;20.60;1.00;;;;;;2275900;61;1083;-86
2023/08/09 01:53:13;143711.00;0.48;248.97;0.00;0.00;0.62;;;;;20.50;1.00;;;;;;2275990;61;1739;-86
2023/08/09 01:55:41;231825.00;0.77;400.69;8851.00;0.03;15.96;;;;;20.60;1.00;;;;;;2276106;61;1758;-87
2023/08/09 01:58:09;202366.00;0.67;350.00;54012.00;0.18;94.12;;;;;20.60;1.00;;;;;;2275886;61;1674;-89
2023/08/09 02:00:37;86063.00;0.29;149.51;0.00;0.00;0.62;;;;;20.60;1.00;;;;;;2277600;55;3595;-88
2023/08/09 02:03:06;271409.00;0.90;468.77;35211.00;0.12;61.60;;;;;20.60;1.00;;;;;;2276097;61;1434;-89
2023/08/09 02:05:33;76995.00;0.26;133.85;0.00;0.00;0.62;;;;;20.90;1.00;;;;;;2276012;61;2282;-87
2023/08/09 02:08:00;409888.00;1.37;706.80;29521.00;0.10;51.75;;;;;20.80;1.00;;;;;;2276001;61;1399;-87
2023/08/09 02:10:29;272360.00;0.91;470.40;0.00;0.00;0.62;;;;;20.70;1.00;;;;;;2338633;56;3705;-86
2023/08/09 02:12:56;163862.00;0.55;283.69;0.00;0.00;0.62;;;;;20.80;1.00;;;;;;2275978;61;1647;-86
2023/08/09 02:15:25;140931.00;0.47;244.18;0.00;0.00;0.62;;;;;20.80;1.00;;;;;;2275971;61;1760;-88
2023/08/09 02:17:52;192795.00;0.64;333.52;0.00;0.00;0.62;;;;;20.70;1.00;;;;;;2276040;61;1536;-90
2023/08/09 02:20:20;187105.00;0.62;323.72;0.00;0.00;0.62;;;;;20.60;1.00;;;;;;2275977;61;1919;-86
2023/08/09 02:22:48;124422.00;0.41;215.71;0.00;0.00;0.62;;;;;20.80;1.00;;;;;;2275934;61;1395;-87
2023/08/09 02:25:15;45838.00;0.15;79.99;0.00;0.00;0.62;;;;;20.70;1.00;;;;;;2275939;61;1317;-86
2023/08/09 02:27:42;155476.00;0.52;269.24;0.00;0.00;0.62;;;;;20.40;1.00;;;;;;2275764;61;996;-87
2023/08/09 02:30:11;112679.00;0.38;195.45;0.00;0.00;0.62;;;;;20.20;1.00;;;;;;2276042;61;1476;-88
2023/08/09 02:32:40;228583.00;0.76;395.11;31578.00;0.11;55.31;;;;;20.30;1.00;;;;;;2282785;55;3736;-86
2023/08/09 02:35:08;186576.00;0.62;322.81;0.00;0.00;0.62;;;;;20.30;1.00;;;;;;2275929;61;924;-87
2023/08/09 02:37:35;96055.00;0.32;166.76;0.00;0.00;0.62;;;;;20.40;1.00;;;;;;2275905;61;1739;-87
2023/08/09 02:40:04;154892.00;0.52;268.24;0.00;0.00;0.62;;;;;20.40;1.00;;;;;;2302543;55;3748;-86
2023/08/09 02:45:06;1073173.00;3.58;1862.51;0.00;0.00;0.62;;;;;20.60;1.00;;;;;;2277562;60;1356;-88
2023/08/09 02:47:33;491.00;0.00;1.47;0.00;0.00;0.62;;;;;20.60;1.00;;;;;;2275871;60;1546;-87
2023/08/09 02:50:02;287446.00;0.96;496.34;25438.00;0.08;44.69;;;;;20.60;1.00;;;;;;2275726;60;1656;-85
2023/08/09 02:52:29;104979.00;0.35;182.17;0.00;0.00;0.62;;;;;20.60;1.00;;;;;;2275874;60;1706;-88
2023/08/09 02:54:56;232328.00;0.77;401.55;0.00;0.00;0.62;;;;;20.50;1.00;;;;;;2271804;61;976;-88
2023/08/09 02:57:23;323458.00;1.08;558.24;19885.00;0.07;35.07;;;;;20.50;1.00;;;;;;2271900;61;940;-88
2023/08/09 02:59:50;362267.00;1.21;624.95;0.00;0.00;0.62;;;;;20.60;1.00;;;;;;2271843;61;2016;-88
2023/08/09 03:02:17;166054.00;0.55;287.47;0.00;0.00;0.62;;;;;20.60;1.00;;;;;;2272017;61;1710;-87
2023/08/09 03:04:44;266729.00;0.89;460.72;0.00;0.00;0.62;;;;;20.60;1.00;;;;;;2272054;61;1588;-88
2023/08/09 03:07:13;77665.00;0.26;135.00;0.00;0.00;0.62;;;;;20.60;1.00;;;;;;2272144;61;1739;-89
2023/08/09 03:09:40;227334.00;0.76;392.96;0.00;0.00;0.62;;;;;20.50;1.00;;;;;;2271913;61;1753;-89
2023/08/09 03:12:08;264843.00;0.88;457.48;0.00;0.00;0.62;;;;;20.50;1.00;;;;;;2276955;39;3599;-89
2023/08/09 03:14:35;233458.00;0.78;403.50;0.00;0.00;0.62;;;;;20.70;1.00;;;;;;2276119;61;1740;-89
2023/08/09 03:17:02;192059.00;0.64;332.25;0.00;0.00;0.62;;;;;20.70;1.00;;;;;;2276254;61;1609;-90
2023/08/09 03:19:29;180359.00;0.60;312.11;0.00;0.00;0.62;;;;;20.50;1.00;;;;;;2276129;61;2004;-88
2023/08/09 03:21:56;170136.00;0.57;294.50;0.00;0.00;0.62;;;;;20.40;1.00;;;;;;2276104;61;972;-87
2023/08/09 03:26:54;741315.00;2.47;1278.96;0.00;0.00;0.62;;;;;20.40;1.00;;;;;;2278118;61;1237;-88
2023/08/09 03:31:51;623383.00;2.08;1074.61;0.00;0.00;0.62;;;;;20.30;1.00;;;;;;2288948;39;3495;-88
2023/08/09 03:41:44;559256.00;1.86;963.92;0.00;0.00;0.62;;;;;20.10;1.00;;;;;;2279712;55;3587;-87
2023/08/09 03:44:13;233229.00;0.78;403.10;0.00;0.00;0.62;;;;;20.20;1.00;;;;;;2275958;61;1794;-87
2023/08/09 03:49:10;1061591.00;3.54;1841.87;0.00;0.00;0.62;;;;;20.20;1.00;;;;;;2278235;60;1616;-87
2023/08/09 03:51:37;170129.00;0.57;294.49;0.00;0.00;0.62;;;;;20.20;1.00;;;;;;2276055;60;1546;-87
2023/08/09 04:01:32;471438.00;1.57;812.66;0.00;0.00;0.62;;;;;20.50;1.00;;;;;;2277798;60;1934;-90
2023/08/09 04:03:59;221371.00;0.74;382.70;31160.00;0.10;54.59;;;;;20.50;1.00;;;;;;2273394;60;1302;-88
2023/08/09 04:06:26;183872.00;0.61;318.16;0.00;0.00;0.62;;;;;20.60;1.00;;;;;;2272080;61;1765;-87
2023/08/09 04:08:53;161155.00;0.54;279.03;0.00;0.00;0.62;;;;;20.70;1.00;;;;;;2272106;61;1694;-87
2023/08/09 04:11:20;187946.00;0.63;325.17;0.00;0.00;0.62;;;;;20.60;1.00;;;;;;2272071;61;899;-87
2023/08/09 04:13:47;208906.00;0.70;361.25;0.00;0.00;0.62;;;;;20.70;1.00;;;;;;2272097;61;1722;-87
2023/08/09 04:18:44;801036.00;2.67;1382.93;0.00;0.00;0.62;;;;;20.50;1.00;;;;;;2290075;55;3620;-87
2023/08/09 04:21:11;77144.00;0.26;134.10;0.00;0.00;0.62;;;;;20.50;1.00;;;;;;2276552;61;1911;-88
2023/08/09 04:23:38;124643.00;0.42;216.09;0.00;0.00;0.62;;;;;20.50;1.00;;;;;;2287271;39;3673;-88
2023/08/09 04:26:05;156547.00;0.52;271.09;0.00;0.00;0.62;;;;;20.50;1.00;;;;;;2276772;61;1713;-90
2023/08/09 04:31:05;749682.00;2.50;1293.50;0.00;0.00;0.62;;;;;20.60;1.00;;;;;;2278520;60;1844;-87
2023/08/09 04:36:04;522674.00;1.74;900.87;0.00;0.00;0.62;;;;;21.00;1.00;;;;;;2278559;60;1421;-88
2023/08/09 04:38:31;0.00;0.00;0.62;0.00;0.00;0.62;;;;;21.10;1.00;;;;;;2276671;60;1166;-90
2023/08/09 04:40:58;162697.00;0.54;281.69;0.00;0.00;0.62;;;;;21.20;1.00;;;;;;2288571;39;3626;-87
2023/08/09 04:45:54;730651.00;2.44;1260.43;17479.00;0.06;30.90;;;;;21.60;1.00;;;;;;2278414;60;1216;-88
2023/08/09 04:48:21;261347.00;0.87;451.46;0.00;0.00;0.62;;;;;21.70;1.00;;;;;;2276721;60;1438;-87
2023/08/09 04:50:48;171138.00;0.57;296.23;0.00;0.00;0.62;;;;;21.80;1.00;;;;;;2276688;60;1640;-90
2023/08/09 04:53:16;229112.00;0.76;396.02;0.00;0.00;0.62;;;;;21.90;1.00;;;;;;2285247;55;3749;-88
2023/08/09 04:55:43;0.00;0.00;0.62;0.00;0.00;0.62;;;;;21.90;1.00;;;;;;2272646;61;1149;-88
2023/08/09 04:58:10;134830.00;0.45;233.66;0.00;0.00;0.62;;;;;22.00;1.00;;;;;;2272740;61;1059;-88
2023/08/09 05:00:38;142198.00;0.47;246.36;0.00;0.00;0.62;;;;;22.00;1.00;;;;;;2272640;61;1917;-87
2023/08/09 05:08:02;1046941.00;3.49;1815.79;0.00;0.00;0.62;;;;;22.10;1.00;;;;;;2363998;55;3606;-86
2023/08/09 05:18:01;1172265.00;3.91;2040.15;0.00;0.00;0.62;;;;;22.20;1.00;;;;;;2313355;40;3685;-87
2023/08/09 05:30:25;975355.00;3.25;1688.87;0.00;0.00;0.62;;;;;22.10;1.00;;;;;;2317299;39;3502;-89
2023/08/09 05:55:17;879128.00;2.93;1519.49;61211.00;0.20;106.57;;;;;22.00;1.00;;;;;;1831115;39;3396;-90
2023/08/09 05:57:44;481140.00;1.60;829.36;67090.00;0.22;116.73;;;;;22.10;1.00;;;;;;2284609;39;3595;-87
2023/08/09 06:27:29;1154263.00;3.85;2007.74;0.00;0.00;0.62;;;;;20.70;1.00;;;;;;2358907;55;3618;-88
2023/08/09 06:29:56;395075.00;1.32;681.34;0.00;0.00;0.62;;;;;20.60;1.00;;;;;;2293703;39;3600;-88
2023/08/09 06:34:53;1447728.00;4.83;2545.14;0.00;0.00;0.62;;;;;21.20;1.00;;;;;;2274896;61;1295;-88
2023/08/09 06:37:20;496816.00;1.66;856.34;0.00;0.00;0.62;;;;;21.40;1.00;;;;;;2272973;61;1732;-90
2023/08/09 06:54:55;1429981.00;4.77;2512.05;23825.00;0.08;41.89;;;;;21.90;1.00;;;;;;2273797;61;1379;-85
2023/08/09 06:59:53;1018874.00;3.40;1765.93;0.00;0.00;0.62;;;;;21.70;1.00;;;;;;2278570;61;1286;-89
2023/08/09 07:02:20;131681.00;0.44;228.23;0.00;0.00;0.62;;;;;21.80;1.00;;;;;;2276732;61;2033;-90
2023/08/09 10:50:31;1874334.00;6.25;3369.40;37190.00;0.12;65.03;;;;;25.60;1.00;;;;;;2516331;40;3455;31
2023/08/09 11:23:28;632430.00;2.11;1090.25;0.00;0.00;0.62;;;;;25.90;1.00;;;;;;2513199;55;3672;31
2023/08/09 11:35:59;1139225.00;3.80;1980.72;0.00;0.00;0.62;;;;;27.20;1.00;;;;;;2278922;61;969;-92
2023/08/09 12:31:08;1171780.00;3.91;2039.28;0.00;0.00;0.62;;;;;26.40;1.00;;;;;;2102617;55;3602;-88
2023/08/09 13:48:59;1705059.00;5.68;3035.26;163485.00;0.54;283.04;;;;;26.30;1.00;;;;;;2279269;61;1015;-92
2023/08/09 14:41:32;1100826.00;3.67;1911.90;0.00;0.00;0.62;;;;;26.10;1.00;;;;;;2516643;40;3488;31
2023/08/09 16:59:32;120892384.00;402.97;71574776.00;0.00;0.00;0.62;;;;;25.70;1.00;;;;;;2515560;55;3684;31
2023/08/09 18:16:51;710059.00;2.37;1224.69;0.00;0.00;0.62;;;;;25.70;1.00;;;;;;1997153;40;3432;-89
2023/08/09 18:19:22;118672008.00;395.57;67699592.00;118484336.00;394.95;67378624.00;;;;;25.80;1.00;;;;;;2318842;55;3835;-87
2023/08/09 18:21:49;922982.00;3.08;1596.52;69316.00;0.23;120.58;;;;;25.70;1.00;;;;;;2290314;39;3770;-89
2023/08/09 18:26:46;1081628.00;3.61;1877.60;100670.00;0.34;174.73;;;;;25.60;1.00;;;;;;2277996;60;1422;-89
2023/08/09 18:29:13;613491.00;2.04;1057.52;91763.00;0.31;159.35;;;;;25.60;1.00;;;;;;2293558;55;3729;-88
2023/08/09 18:31:40;211434.00;0.70;365.60;74481.00;0.25;129.50;;;;;25.70;1.00;;;;;;2362803;40;3668;-88
2023/08/09 18:39:06;1041217.00;3.47;1805.61;55135.00;0.18;96.07;;;;;25.80;1.00;;;;;;2278321;60;1415;-89
2023/08/09 18:44:02;501711.00;1.67;864.77;73550.00;0.25;127.89;;;;;25.80;1.00;;;;;;2275455;60;1891;-89
2023/08/09 18:48:58;629800.00;2.10;1085.70;76466.00;0.25;132.93;;;;;25.60;1.00;;;;;;2277953;60;1411;-88
2023/08/09 18:51:25;313188.00;1.04;540.59;70010.00;0.23;121.78;;;;;25.60;1.00;;;;;;2276293;60;2356;-89
2023/08/09 18:56:23;1413524.00;4.71;2481.43;73736.00;0.25;128.22;;;;;25.50;1.00;;;;;;2274418;61;1221;-89
2023/08/09 19:03:49;1007773.00;3.36;1746.24;64774.00;0.22;112.73;;;;;25.60;1.00;;;;;;2332186;39;3650;-88
2023/08/09 19:08:45;1082907.00;3.61;1879.88;65494.00;0.22;113.97;;;;;25.60;1.00;;;;;;1788800;56;3597;-88
2023/08/09 19:18:47;1178570.00;3.93;2051.52;109693.00;0.37;190.30;;;;;25.40;1.00;;;;;;2072730;40;3416;-89
2023/08/09 19:21:14;952672.00;3.18;1648.82;5992.00;0.02;11.00;;;;;25.30;1.00;;;;;;2323920;40;3560;-85
2023/08/09 19:23:41;728337.00;2.43;1256.41;118688.00;0.40;205.82;;;;;25.40;1.00;;;;;;2394530;40;3656;-88
2023/08/09 19:31:07;1095589.00;3.65;1902.54;0.00;0.00;0.62;;;;;25.40;1.00;;;;;;2278010;61;1439;-89
2023/08/09 19:38:34;1745082.00;5.82;3113.36;21283.00;0.07;37.49;;;;;25.30;1.00;;;;;;791870;56;3591;-88
2023/08/09 20:08:38;742718.00;2.48;1281.40;0.00;0.00;0.62;;;;;25.10;1.00;;;;;;2277951;60;1391;-88
2023/08/09 20:13:35;902176.00;3.01;1559.94;0.00;0.00;0.62;;;;;24.70;1.00;;;;;;2366989;55;3663;-87
2023/08/09 20:28:42;64819.00;0.22;112.81;0.00;0.00;0.62;;;;;23.40;1.00;;;;;;1714784;55;3110;-89
2023/08/09 20:33:38;1085438.00;3.62;1884.40;0.00;0.00;0.62;;;;;23.40;1.00;;;;;;1572645;40;3572;-87
2023/08/09 20:43:42;499692.00;1.67;861.29;0.00;0.00;0.62;;;;;22.90;1.00;;;;;;2285295;40;3408;-87
2023/08/09 20:51:06;934604.00;3.12;1616.98;0.00;0.00;0.62;;;;;22.70;1.00;;;;;;1988671;56;3550;-87
2023/08/09 21:18:33;585534.00;1.95;1009.25;0.00;0.00;0.62;;;;;21.90;1.00;;;;;;2322202;40;3789;-87
2023/08/09 21:21:00;113498.00;0.38;196.87;0.00;0.00;0.62;;;;;21.70;1.00;;;;;;2276257;61;1005;-88
2023/08/09 21:23:27;95593.00;0.32;165.96;0.00;0.00;0.62;;;;;21.80;1.00;;;;;;2276291;61;1997;-88
2023/08/09 21:36:08;1279213.00;4.26;2234.11;0.00;0.00;0.62;;;;;21.60;1.00;;;;;;2277948;60;1201;-86
2023/08/09 21:38:35;506246.00;1.69;872.58;0.00;0.00;0.62;;;;;22.00;1.00;;;;;;2305012;40;3575;-86
2023/08/09 21:41:03;287505.00;0.96;496.44;9477.00;0.03;17.04;;;;;22.10;1.00;;;;;;2276074;61;1190;-86
2023/08/09 21:43:40;183682.00;0.61;317.83;37490.00;0.12;65.55;;;;;22.30;1.00;;;;;;2283243;55;3631;-88
2023/08/09 21:46:07;352079.00;1.17;607.43;81313.00;0.27;141.31;;;;;22.20;1.00;;;;;;2288247;39;3598;-87
2023/08/09 21:48:35;277766.00;0.93;479.70;65169.00;0.22;113.41;;;;;21.80;1.00;;;;;;2277029;61;1088;-87
2023/08/09 21:51:03;216374.00;0.72;374.10;66391.00;0.22;115.52;;;;;21.70;1.00;;;;;;2276283;61;1134;-88
2023/08/09 21:53:32;551332.00;1.84;950.26;115181.00;0.38;199.77;;;;;21.70;1.00;;;;;;2276331;61;1396;-87
2023/08/09 21:55:59;409919.00;1.37;706.86;64762.00;0.22;112.71;;;;;21.80;1.00;;;;;;2276285;61;1700;-87
2023/08/09 21:58:26;237006.00;0.79;409.60;68607.00;0.23;119.35;;;;;22.00;1.00;;;;;;2276331;61;1075;-86
2023/08/09 22:00:55;358554.00;1.20;618.56;63440.00;0.21;110.42;;;;;21.70;1.00;;;;;;2276368;61;1167;-86
2023/08/09 22:03:22;462138.00;1.54;796.66;69936.00;0.23;121.65;;;;;21.70;1.00;;;;;;2276288;61;1928;-86
2023/08/09 22:05:49;384666.00;1.28;663.45;93764.00;0.31;162.81;;;;;21.40;1.30;;;;;;2276323;61;1762;-86
2023/08/09 22:08:16;253736.00;0.85;438.38;63380.00;0.21;110.32;;;;;21.20;2.80;;;;;;2276403;61;1028;-88
2023/08/09 22:10:45;346818.00;1.16;598.39;63960.00;0.21;111.32;;;;;21.10;3.80;;;;;;2276370;61;1043;-88
2023/08/09 22:13:14;479693.00;1.60;826.87;67700.00;0.23;117.79;;;;;20.90;4.90;;;;;;2276179;61;1517;-87
2023/08/09 22:15:45;288725.00;0.96;498.54;67520.00;0.23;117.47;;;;;20.60;6.60;;;;;;2276285;61;1162;-87
2023/08/09 22:18:16;502210.00;1.67;865.63;108687.00;0.36;188.56;;;;;20.50;7.40;;;;;;2276158;61;1913;-87
2023/08/09 22:20:43;915213.00;3.05;1582.85;122141.00;0.41;211.78;;;;;20.30;9.50;;;;;;2276041;61;1197;-86
2023/08/09 22:23:10;647267.00;2.16;1115.91;66691.00;0.22;116.04;;;;;20.20;10.20;;;;;;2276240;61;1997;-86
2023/08/09 22:25:38;704951.00;2.35;1215.83;182313.00;0.61;315.47;;;;;20.10;11.30;;;;;;2276143;61;1123;-87
2023/08/09 22:28:08;738350.00;2.46;1273.81;101684.00;0.34;176.48;;;;;19.90;10.50;;;;;;2276215;61;1154;-87
2023/08/09 22:30:35;699263.00;2.33;1205.96;121731.00;0.41;211.07;;;;;19.80;10.00;;;;;;2276230;61;1055;-86
2023/08/09 22:33:02;994293.00;3.31;1722.37;140320.00;0.47;243.12;;;;;19.80;9.30;;;;;;2276118;61;1621;-87
2023/08/09 22:35:29;655654.00;2.19;1130.42;73991.00;0.25;128.66;;;;;19.70;8.40;;;;;;2276202;61;1152;-88
2023/08/09 22:37:56;565706.00;1.89;975.04;72206.00;0.24;125.57;;;;;19.70;8.90;;;;;;2276259;61;950;-88
2023/08/09 22:40:25;514230.00;1.71;886.33;78867.00;0.26;137.08;;;;;19.80;6.00;;;;;;2276217;61;1610;-88
2023/08/09 22:42:52;907131.00;3.02;1568.65;219222.00;0.73;379.00;;;;;19.30;5.70;;;;;;2276018;61;2022;-86
2023/08/09 22:45:21;613582.00;2.05;1057.68;87035.00;0.29;151.19;;;;;19.40;4.60;;;;;;2276161;61;1046;-86
2023/08/09 22:47:47;723151.00;2.41;1247.41;13169.00;0.04;23.44;;;;;19.20;2.00;;;;;;2276115;61;1198;-87
2023/08/09 22:50:15;430706.00;1.44;742.60;71820.00;0.24;124.91;;;;;19.10;1.40;;;;;;2275940;61;1121;-88
2023/08/09 22:52:42;680816.00;2.27;1173.99;84601.00;0.28;146.98;;;;;19.00;1.00;;;;;;2276255;61;1342;-88
2023/08/09 22:55:10;891835.00;2.97;1541.78;84711.00;0.28;147.17;;;;;18.50;1.00;;;;;;2276057;61;1562;-87
2023/08/09 22:57:38;595432.00;1.98;1026.33;26407.00;0.09;46.36;;;;;18.20;1.00;;;;;;2276017;61;1619;-87
2023/08/09 23:00:09;513197.00;1.71;884.55;5704.00;0.02;10.51;;;;;18.10;1.00;;;;;;2276232;61;1248;-87
2023/08/09 23:02:38;474150.00;1.58;817.33;0.00;0.00;0.62;;;;;18.30;1.00;;;;;;2276105;61;2002;-87
2023/08/09 23:05:05;746151.00;2.49;1287.37;42331.00;0.14;73.92;;;;;18.40;1.00;;;;;;2276165;61;997;-88
2023/08/09 23:07:33;615470.00;2.05;1060.94;237.00;0.00;1.03;;;;;18.30;1.00;;;;;;2276074;61;1631;-88
2023/08/09 23:10:00;678141.00;2.26;1169.35;27800.00;0.09;48.77;;;;;18.10;1.00;;;;;;2276196;61;1041;-87
2023/08/09 23:12:28;728776.00;2.43;1257.18;0.00;0.00;0.62;;;;;18.20;1.00;;;;;;2276098;61;1002;-87
2023/08/09 23:14:55;577947.00;1.93;996.16;0.00;0.00;0.62;;;;;17.90;1.00;;;;;;2276104;61;2126;-86
2023/08/09 23:17:24;626170.00;2.09;1079.43;0.00;0.00;0.62;;;;;17.80;1.00;;;;;;2276104;61;1075;-87
2023/08/09 23:19:53;389233.00;1.30;671.30;59258.00;0.20;103.19;;;;;17.90;1.00;;;;;;2276174;61;1294;-87
2023/08/09 23:22:20;613347.00;2.04;1057.27;19182.00;0.06;33.85;;;;;17.80;1.00;;;;;;2278363;39;3583;-86
2023/08/09 23:24:47;630423.00;2.10;1086.78;51235.00;0.17;89.32;;;;;18.10;1.00;;;;;;2275945;61;1540;-86
2023/08/09 23:27:15;581847.00;1.94;1002.89;0.00;0.00;0.62;;;;;18.50;1.00;;;;;;2276030;61;1006;-86
2023/08/09 23:29:43;597660.00;1.99;1030.18;26635.00;0.09;46.76;;;;;18.60;1.00;;;;;;2276042;61;1080;-86
2023/08/09 23:32:11;586016.00;1.95;1010.08;16018.00;0.05;28.37;;;;;18.30;1.00;;;;;;2276094;61;1755;-87
2023/08/09 23:34:38;553772.00;1.85;954.46;21491.00;0.07;37.85;;;;;18.50;1.00;;;;;;2276029;61;1455;-85
2023/08/09 23:37:08;570189.00;1.90;982.77;32342.00;0.11;56.64;;;;;18.70;1.00;;;;;;2275950;61;1561;-86
2023/08/09 23:39:35;414825.00;1.38;715.29;39493.00;0.13;69.01;;;;;18.60;1.00;;;;;;2276078;61;1059;-88
2023/08/09 23:42:02;462662.00;1.54;797.56;21764.00;0.07;38.32;;;;;18.80;1.00;;;;;;2276035;61;1924;-87
2023/08/09 23:44:29;561125.00;1.87;967.14;23037.00;0.08;40.53;;;;;19.20;1.00;;;;;;2276001;61;1369;-86
2023/08/09 23:46:56;342451.00;1.14;590.89;0.00;0.00;0.62;;;;;19.50;1.00;;;;;;2276067;61;1067;-87
2023/08/09 23:49:23;389726.00;1.30;672.14;24648.00;0.08;43.32;;;;;19.80;1.00;;;;;;2276020;61;994;-87
2023/08/09 23:51:50;475758.00;1.59;820.10;15030.00;0.05;26.66;;;;;20.30;1.00;;;;;;2276015;61;1589;-87
2023/08/09 23:54:20;626474.00;2.09;1079.95;26349.00;0.09;46.26;;;;;20.20;1.00;;;;;;2275954;61;1568;-86
2023/08/09 23:56:47;586481.00;1.95;1010.88;18003.00;0.06;31.81;;;;;20.00;1.00;;;;;;2275991;61;1153;-91
2023/08/09 23:59:14;402930.00;1.34;694.84;11953.00;0.04;21.33;;;;;19.90;1.00;;;;;;2276073;61;1135;-87
